Observations for Trim Patrick St
| Time | AQI | Temp °C | Hum % | Pres Pa | CO μg/m³ | H₂S μg/m³ | NO μg/m³ | NO₂ μg/m³ | O₃ μg/m³ | SO₂ μg/m³ | PM1 μg/m³ | PM2.5 μg/m³ | PM10 μg/m³ |
|---|---|---|---|---|---|---|---|---|---|---|---|---|---|
| Saturday 8 August 2026 | |||||||||||||
| 11:19 | 1 | 25.3 | 47 | 69,096 | 0 | 0 | 1.59 | 11.27 | 68.54 | 6.78 | 2.86 | 8.16 | 8.97 |
| 11:18 | 1 | 25.2 | 47 | 69,078 | 0 | 0 | 1.61 | 11.97 | 74.44 | 6.95 | 2.86 | 7.37 | 8.11 |
| 11:17 | 1 | 25.1 | 47 | 69,078 | 0 | 0 | 1.58 | 11.43 | 68.69 | 6.67 | 2.86 | 8.12 | 8.93 |
| 11:16 | 1 | 25.1 | 47 | 69,084 | 0 | 0 | 1.66 | 11.86 | 62.6 | 6.48 | 2 | 7.38 | 8.12 |
| 11:15 | 1 | 25 | 47 | 69,090 | 0 | 0 | 1.76 | 10.95 | 68.55 | 7.11 | 2.86 | 8.16 | 8.97 |
| 11:14 | 1 | 25 | 47 | 69,096 | 0 | 2.14 | 1.78 | 11.98 | 73.95 | 7.19 | 2.86 | 7.36 | 8.1 |
| 11:13 | 1 | 25 | 47 | 69,104 | 0 | 0 | 1.8 | 12.14 | 71.13 | 5.85 | 2.86 | 8.93 | 9.83 |
| 11:12 | 1 | 25 | 47 | 69,088 | 0 | 0 | 1.77 | 11.3 | 62.62 | 6.45 | 2 | 6.6 | 7.26 |
| 11:11 | 1 | 24.9 | 47 | 69,096 | 0 | 0 | 1.83 | 11.38 | 73.44 | 6.78 | 2.86 | 7.37 | 8.1 |
| 11:10 | 1 | 24.9 | 46 | 69,110 | 0 | 0 | 1.76 | 11.21 | 76.13 | 6.76 | 2 | 6.64 | 7.3 |
| 11:09 | 1 | 24.9 | 46 | 69,098 | 0 | 0 | 1.33 | 10.37 | 66.17 | 6.53 | 2 | 6.63 | 7.3 |
| 11:08 | 1 | 24.9 | 46 | 69,084 | 0 | 0 | 1.38 | 9.85 | 63.97 | 6.43 | 2.86 | 7.42 | 8.16 |
| 11:07 | 1 | 24.9 | 46 | 69,096 | 0 | 0 | 1.46 | 10.57 | 65.68 | 6.21 | 2.86 | 8.18 | 9 |
| 11:06 | 1 | 24.9 | 47 | 69,106 | 0 | 0 | 1.35 | 10.86 | 73.91 | 6.71 | 2.86 | 7.4 | 8.14 |
| 11:05 | 1 | 24.9 | 46 | 69,094 | 0 | 0 | 1.35 | 10.09 | 64.14 | 6.07 | 2.86 | 7.42 | 8.16 |
| 11:04 | 1 | 25 | 47 | 69,080 | 0 | 0 | 1.5 | 10.68 | 65.82 | 6.47 | 2 | 7.37 | 8.1 |
| 11:03 | 1 | 25 | 47 | 69,088 | 0 | 0 | 1.23 | 10.61 | 56.32 | 6.03 | 2.86 | 7.39 | 8.12 |
| 11:02 | 1 | 25 | 47 | 69,096 | 0 | 0 | 1.34 | 10.99 | 67.33 | 6.69 | 2.86 | 8.13 | 8.94 |
| 11:01 | 1 | 25 | 47 | 69,106 | 0 | 0 | 1.33 | 11.08 | 61.9 | 6.2 | 2 | 7.39 | 8.12 |
| 11:00 | 1 | 25 | 47 | 69,086 | 0 | 0 | 1.33 | 11.16 | 67.75 | 6.55 | 2.86 | 7.38 | 8.12 |